Portada
METAR-TAF:

METAR-TAF

Aeropuertos :

Matagami, Quebec, Canadá

latitud: 49-46N, longitud: 077-49W, altitud: 281 m

Observación

El informe se hizo hace 16 minutos, a las 16:46 UTC
Viento 15 kt del noroeste con ráfagas de 28 kt
Temperatura -2°C
Humedad 86%
Presión 1006 hPa
Visibilidad: 14.5 km
Cielo nuboso a una altura de 2100 ft
Cielo cubierto a una altura de 2700 ft

METAR: CYNM 171646Z AUTO 32015G28KT 9SM BKN021 OVC027 M02/M04 A2971 RMK SLP078

Hora: 13:02 (17:02 UTC)


TAF: falta

Observaciones y pronósticos meteorológicos de más de 4000 aeropuertos (mensajes METAR y TAF).

Los puntos amarillos y rojos representan las estaciones disponibles.

Ponga el ratón en el punto deseado para ver el nombre de la estación.

Haga clic para ver las observaciones y los pronósticos meteorológicos.

Para cambiar el mapa : haga clic en los botones verdes con una cruz de color negro para hacer un zoom, en el botón verde con un guión para alejar o en las flechas verdes para mapas adyacentes.


METAR-TAF: